sensor_id;sensor_type;location;lat;lon;timestamp;pressure;altitude;pressure_sealevel;temperature;humidity
48563;BME280;34981;49.104;11.396;2023-05-08T00:02:05;95456.22;;;11.64;100.00
48563;BME280;34981;49.104;11.396;2023-05-08T00:04:32;95467.88;;;11.60;100.00
48563;BME280;34981;49.104;11.396;2023-05-08T00:07:00;95480.19;;;11.66;100.00
48563;BME280;34981;49.104;11.396;2023-05-08T00:09:27;95488.47;;;11.75;100.00
48563;BME280;34981;49.104;11.396;2023-05-08T00:11:54;95478.00;;;11.68;100.00
48563;BME280;34981;49.104;11.396;2023-05-08T00:14:21;95489.88;;;11.67;100.00
48563;BME280;34981;49.104;11.396;2023-05-08T00:16:48;95495.06;;;11.58;100.00
48563;BME280;34981;49.104;11.396;2023-05-08T00:19:15;95504.13;;;11.67;100.00
48563;BME280;34981;49.104;11.396;2023-05-08T00:21:42;95509.19;;;11.69;100.00
48563;BME280;34981;49.104;11.396;2023-05-08T00:24:09;95517.28;;;11.69;100.00
48563;BME280;34981;49.104;11.396;2023-05-08T00:26:37;95512.69;;;11.75;100.00
48563;BME280;34981;49.104;11.396;2023-05-08T00:29:04;95498.63;;;11.54;100.00
48563;BME280;34981;49.104;11.396;2023-05-08T00:31:32;95513.00;;;11.44;100.00
48563;BME280;34981;49.104;11.396;2023-05-08T00:34:00;95521.53;;;11.51;100.00
48563;BME280;34981;49.104;11.396;2023-05-08T00:36:27;95522.53;;;11.60;100.00
48563;BME280;34981;49.104;11.396;2023-05-08T00:38:54;95511.03;;;11.50;100.00
48563;BME280;34981;49.104;11.396;2023-05-08T00:41:21;95510.06;;;11.41;100.00
48563;BME280;34981;49.104;11.396;2023-05-08T00:43:48;95508.28;;;11.31;100.00
48563;BME280;34981;49.104;11.396;2023-05-08T00:46:15;95523.81;;;11.39;100.00
48563;BME280;34981;49.104;11.396;2023-05-08T00:48:43;95522.19;;;11.14;100.00
48563;BME280;34981;49.104;11.396;2023-05-08T00:51:10;95549.81;;;11.25;100.00
48563;BME280;34981;49.104;11.396;2023-05-08T00:53:38;95543.84;;;11.28;100.00
48563;BME280;34981;49.104;11.396;2023-05-08T00:56:08;95549.50;;;11.26;100.00
48563;BME280;34981;49.104;11.396;2023-05-08T00:58:36;95544.03;;;11.08;100.00
48563;BME280;34981;49.104;11.396;2023-05-08T01:01:03;95552.97;;;10.98;100.00
48563;BME280;34981;49.104;11.396;2023-05-08T01:03:31;95555.59;;;11.03;100.00
48563;BME280;34981;49.104;11.396;2023-05-08T01:06:00;95566.16;;;11.00;100.00
48563;BME280;34981;49.104;11.396;2023-05-08T01:08:27;95567.22;;;10.99;100.00
48563;BME280;34981;49.104;11.396;2023-05-08T01:16:06;95584.59;;;11.11;100.00
48563;BME280;34981;49.104;11.396;2023-05-08T01:18:40;95577.97;;;10.99;100.00
48563;BME280;34981;49.104;11.396;2023-05-08T01:26:35;95609.34;;;10.74;100.00
48563;BME280;34981;49.104;11.396;2023-05-08T01:29:12;95632.47;;;10.75;100.00
48563;BME280;34981;49.104;11.396;2023-05-08T01:34:30;95653.81;;;10.57;100.00
48563;BME280;34981;49.104;11.396;2023-05-08T01:37:05;95674.97;;;10.68;100.00
48563;BME280;34981;49.104;11.396;2023-05-08T01:39:50;95699.13;;;10.78;100.00
48563;BME280;34981;49.104;11.396;2023-05-08T01:45:09;95718.47;;;10.80;100.00
48563;BME280;34981;49.104;11.396;2023-05-08T01:47:38;95708.59;;;10.66;100.00
48563;BME280;34981;49.104;11.396;2023-05-08T01:50:07;95713.69;;;10.72;100.00
48563;BME280;34981;49.104;11.396;2023-05-08T01:55:20;95707.22;;;10.68;100.00
48563;BME280;34981;49.104;11.396;2023-05-08T01:57:51;95697.38;;;10.48;100.00
48563;BME280;34981;49.104;11.396;2023-05-08T02:00:20;95723.34;;;10.68;100.00
48563;BME280;34981;49.104;11.396;2023-05-08T02:02:48;95722.88;;;10.56;100.00
48563;BME280;34981;49.104;11.396;2023-05-08T02:05:15;95728.78;;;10.53;100.00
48563;BME280;34981;49.104;11.396;2023-05-08T02:07:45;95750.75;;;10.75;100.00
48563;BME280;34981;49.104;11.396;2023-05-08T02:10:15;95738.34;;;10.84;100.00
48563;BME280;34981;49.104;11.396;2023-05-08T02:12:42;95731.97;;;10.70;100.00
48563;BME280;34981;49.104;11.396;2023-05-08T02:15:11;95741.38;;;10.68;100.00
48563;BME280;34981;49.104;11.396;2023-05-08T02:17:39;95730.41;;;10.59;100.00
48563;BME280;34981;49.104;11.396;2023-05-08T02:20:07;95743.59;;;10.45;100.00
48563;BME280;34981;49.104;11.396;2023-05-08T02:22:41;95759.16;;;10.59;100.00
48563;BME280;34981;49.104;11.396;2023-05-08T02:25:09;95746.03;;;10.47;100.00
48563;BME280;34981;49.104;11.396;2023-05-08T02:27:44;95768.56;;;10.56;100.00
48563;BME280;34981;49.104;11.396;2023-05-08T02:30:12;95764.59;;;10.38;100.00
48563;BME280;34981;49.104;11.396;2023-05-08T02:32:41;95790.91;;;10.41;100.00
48563;BME280;34981;49.104;11.396;2023-05-08T02:35:11;95781.56;;;10.19;100.00
48563;BME280;34981;49.104;11.396;2023-05-08T02:37:39;95801.16;;;10.14;100.00
48563;BME280;34981;49.104;11.396;2023-05-08T02:40:07;95813.25;;;10.27;100.00
48563;BME280;34981;49.104;11.396;2023-05-08T02:42:36;95837.41;;;10.32;100.00
48563;BME280;34981;49.104;11.396;2023-05-08T02:45:03;95840.63;;;10.39;100.00
48563;BME280;34981;49.104;11.396;2023-05-08T02:47:47;95827.72;;;10.15;100.00
48563;BME280;34981;49.104;11.396;2023-05-08T02:52:49;95850.81;;;10.01;100.00
48563;BME280;34981;49.104;11.396;2023-05-08T02:55:28;95861.28;;;10.03;100.00
48563;BME280;34981;49.104;11.396;2023-05-08T02:58:04;95884.69;;;10.18;100.00
48563;BME280;34981;49.104;11.396;2023-05-08T03:00:36;95889.50;;;10.10;100.00
48563;BME280;34981;49.104;11.396;2023-05-08T03:03:26;95892.72;;;10.02;100.00
48563;BME280;34981;49.104;11.396;2023-05-08T03:05:57;95904.78;;;9.90;100.00
48563;BME280;34981;49.104;11.396;2023-05-08T03:08:30;95923.06;;;9.93;100.00
48563;BME280;34981;49.104;11.396;2023-05-08T03:10:59;95917.13;;;9.81;100.00
48563;BME280;34981;49.104;11.396;2023-05-08T03:13:28;95925.41;;;9.64;100.00
48563;BME280;34981;49.104;11.396;2023-05-08T03:15:57;95942.03;;;9.61;100.00
48563;BME280;34981;49.104;11.396;2023-05-08T03:18:30;95966.78;;;9.78;100.00
48563;BME280;34981;49.104;11.396;2023-05-08T03:20:58;95968.63;;;9.72;100.00
48563;BME280;34981;49.104;11.396;2023-05-08T03:23:26;95987.72;;;9.71;100.00
48563;BME280;34981;49.104;11.396;2023-05-08T03:25:56;95991.97;;;9.62;100.00
48563;BME280;34981;49.104;11.396;2023-05-08T03:28:24;96007.75;;;9.58;100.00
48563;BME280;34981;49.104;11.396;2023-05-08T03:30:54;96030.59;;;9.61;100.00
48563;BME280;34981;49.104;11.396;2023-05-08T03:33:22;96028.97;;;9.55;100.00
48563;BME280;34981;49.104;11.396;2023-05-08T03:35:50;96053.06;;;9.45;100.00
48563;BME280;34981;49.104;11.396;2023-05-08T03:38:17;96062.47;;;9.47;100.00
48563;BME280;34981;49.104;11.396;2023-05-08T03:40:44;96066.47;;;9.45;100.00
48563;BME280;34981;49.104;11.396;2023-05-08T03:43:12;96080.69;;;9.45;100.00
48563;BME280;34981;49.104;11.396;2023-05-08T03:45:41;96089.78;;;9.39;100.00
48563;BME280;34981;49.104;11.396;2023-05-08T03:48:09;96100.16;;;9.25;100.00
48563;BME280;34981;49.104;11.396;2023-05-08T03:50:37;96121.41;;;9.37;100.00
48563;BME280;34981;49.104;11.396;2023-05-08T03:53:07;96130.09;;;9.49;100.00
48563;BME280;34981;49.104;11.396;2023-05-08T03:55:34;96132.97;;;9.37;100.00
48563;BME280;34981;49.104;11.396;2023-05-08T04:00:40;96172.72;;;9.46;100.00
48563;BME280;34981;49.104;11.396;2023-05-08T04:03:19;96179.69;;;9.42;100.00
48563;BME280;34981;49.104;11.396;2023-05-08T04:05:55;96188.25;;;9.38;100.00
48563;BME280;34981;49.104;11.396;2023-05-08T04:08:28;96189.84;;;9.34;100.00
48563;BME280;34981;49.104;11.396;2023-05-08T04:11:03;96194.75;;;9.16;100.00
48563;BME280;34981;49.104;11.396;2023-05-08T04:13:33;96225.03;;;9.11;100.00
48563;BME280;34981;49.104;11.396;2023-05-08T04:16:04;96246.47;;;9.38;100.00
48563;BME280;34981;49.104;11.396;2023-05-08T04:18:33;96255.34;;;9.44;100.00
48563;BME280;34981;49.104;11.396;2023-05-08T04:21:03;96259.91;;;9.43;100.00
48563;BME280;34981;49.104;11.396;2023-05-08T04:23:34;96256.19;;;9.17;100.00
48563;BME280;34981;49.104;11.396;2023-05-08T04:26:03;96288.28;;;9.34;100.00
48563;BME280;34981;49.104;11.396;2023-05-08T04:28:32;96288.97;;;9.24;100.00
48563;BME280;34981;49.104;11.396;2023-05-08T04:30:59;96307.91;;;9.40;100.00
48563;BME280;34981;49.104;11.396;2023-05-08T04:33:27;96305.69;;;9.31;100.00
48563;BME280;34981;49.104;11.396;2023-05-08T04:35:55;96315.81;;;9.24;100.00
48563;BME280;34981;49.104;11.396;2023-05-08T04:38:23;96343.03;;;9.38;100.00
48563;BME280;34981;49.104;11.396;2023-05-08T04:40:51;96345.47;;;9.40;100.00
48563;BME280;34981;49.104;11.396;2023-05-08T04:43:18;96360.56;;;9.46;100.00
48563;BME280;34981;49.104;11.396;2023-05-08T04:45:45;96361.59;;;9.40;100.00
48563;BME280;34981;49.104;11.396;2023-05-08T04:48:13;96368.34;;;9.20;100.00
48563;BME280;34981;49.104;11.396;2023-05-08T04:50:40;96392.53;;;9.25;100.00
48563;BME280;34981;49.104;11.396;2023-05-08T04:53:07;96410.88;;;9.33;100.00
48563;BME280;34981;49.104;11.396;2023-05-08T04:55:34;96415.88;;;9.47;100.00
48563;BME280;34981;49.104;11.396;2023-05-08T04:58:01;96432.59;;;9.54;100.00
48563;BME280;34981;49.104;11.396;2023-05-08T05:00:29;96440.00;;;9.68;100.00
48563;BME280;34981;49.104;11.396;2023-05-08T05:02:56;96429.03;;;9.48;100.00
48563;BME280;34981;49.104;11.396;2023-05-08T05:05:24;96448.13;;;9.52;100.00
48563;BME280;34981;49.104;11.396;2023-05-08T05:07:51;96453.38;;;9.42;100.00
48563;BME280;34981;49.104;11.396;2023-05-08T05:10:19;96465.47;;;9.44;100.00
48563;BME280;34981;49.104;11.396;2023-05-08T05:12:47;96487.88;;;9.55;100.00
48563;BME280;34981;49.104;11.396;2023-05-08T05:15:14;96493.97;;;9.72;100.00
48563;BME280;34981;49.104;11.396;2023-05-08T05:17:42;96505.41;;;9.84;100.00
48563;BME280;34981;49.104;11.396;2023-05-08T05:20:10;96511.47;;;9.96;100.00
48563;BME280;34981;49.104;11.396;2023-05-08T05:22:37;96513.94;;;10.03;100.00
48563;BME280;34981;49.104;11.396;2023-05-08T05:25:04;96508.81;;;10.01;100.00
48563;BME280;34981;49.104;11.396;2023-05-08T05:27:35;96547.47;;;10.44;100.00
48563;BME280;34981;49.104;11.396;2023-05-08T05:30:04;96534.63;;;10.51;100.00
48563;BME280;34981;49.104;11.396;2023-05-08T05:32:31;96539.06;;;10.67;100.00
48563;BME280;34981;49.104;11.396;2023-05-08T05:34:59;96500.81;;;10.60;100.00
48563;BME280;34981;49.104;11.396;2023-05-08T05:37:27;96497.66;;;10.68;100.00
48563;BME280;34981;49.104;11.396;2023-05-08T05:39:54;96481.19;;;10.60;100.00
48563;BME280;34981;49.104;11.396;2023-05-08T05:42:21;96493.06;;;10.96;100.00
48563;BME280;34981;49.104;11.396;2023-05-08T05:44:49;96436.88;;;10.67;100.00
48563;BME280;34981;49.104;11.396;2023-05-08T05:47:16;96439.75;;;10.92;100.00
48563;BME280;34981;49.104;11.396;2023-05-08T05:49:43;96406.91;;;10.85;100.00
48563;BME280;34981;49.104;11.396;2023-05-08T05:52:13;96410.03;;;11.14;100.00
48563;BME280;34981;49.104;11.396;2023-05-08T05:54:40;96376.09;;;11.08;100.00
48563;BME280;34981;49.104;11.396;2023-05-08T05:57:08;96333.72;;;10.83;100.00
48563;BME280;34981;49.104;11.396;2023-05-08T05:59:35;96370.22;;;11.26;100.00
48563;BME280;34981;49.104;11.396;2023-05-08T06:02:03;96337.94;;;11.21;100.00
48563;BME280;34981;49.104;11.396;2023-05-08T06:04:30;96341.22;;;11.49;100.00
48563;BME280;34981;49.104;11.396;2023-05-08T06:06:57;96328.66;;;11.80;100.00
48563;BME280;34981;49.104;11.396;2023-05-08T06:09:24;96290.69;;;11.81;100.00
48563;BME280;34981;49.104;11.396;2023-05-08T06:11:52;96253.25;;;11.75;100.00
48563;BME280;34981;49.104;11.396;2023-05-08T06:14:19;96243.00;;;11.92;100.00
48563;BME280;34981;49.104;11.396;2023-05-08T06:16:46;96211.50;;;11.77;100.00
48563;BME280;34981;49.104;11.396;2023-05-08T06:19:14;96226.31;;;12.05;100.00
48563;BME280;34981;49.104;11.396;2023-05-08T06:21:42;96233.78;;;12.28;100.00
48563;BME280;34981;49.104;11.396;2023-05-08T06:24:09;96205.94;;;12.53;100.00
48563;BME280;34981;49.104;11.396;2023-05-08T06:26:36;96162.69;;;12.73;100.00
48563;BME280;34981;49.104;11.396;2023-05-08T06:29:03;96100.72;;;12.68;100.00
48563;BME280;34981;49.104;11.396;2023-05-08T06:31:30;96109.09;;;13.01;100.00
48563;BME280;34981;49.104;11.396;2023-05-08T06:33:57;96038.94;;;13.01;100.00
48563;BME280;34981;49.104;11.396;2023-05-08T06:36:24;95973.88;;;12.73;100.00
48563;BME280;34981;49.104;11.396;2023-05-08T06:38:53;95967.25;;;12.61;100.00
48563;BME280;34981;49.104;11.396;2023-05-08T06:41:20;95973.41;;;13.00;100.00
48563;BME280;34981;49.104;11.396;2023-05-08T06:43:47;95963.25;;;13.21;100.00
48563;BME280;34981;49.104;11.396;2023-05-08T06:46:14;95902.59;;;13.13;100.00
48563;BME280;34981;49.104;11.396;2023-05-08T06:48:42;95879.97;;;13.04;100.00
48563;BME280;34981;49.104;11.396;2023-05-08T06:51:09;95883.28;;;13.25;100.00
48563;BME280;34981;49.104;11.396;2023-05-08T06:53:36;95815.91;;;12.91;100.00
48563;BME280;34981;49.104;11.396;2023-05-08T06:56:03;95826.13;;;12.94;100.00
48563;BME280;34981;49.104;11.396;2023-05-08T06:58:30;95778.41;;;12.66;100.00
48563;BME280;34981;49.104;11.396;2023-05-08T07:00:58;95777.28;;;12.48;100.00
48563;BME280;34981;49.104;11.396;2023-05-08T07:03:25;95822.69;;;12.88;100.00
48563;BME280;34981;49.104;11.396;2023-05-08T07:05:53;95834.03;;;13.09;100.00
48563;BME280;34981;49.104;11.396;2023-05-08T07:08:20;95810.56;;;13.34;100.00
48563;BME280;34981;49.104;11.396;2023-05-08T07:10:47;95782.59;;;13.24;100.00
48563;BME280;34981;49.104;11.396;2023-05-08T07:13:15;95751.91;;;13.20;100.00
48563;BME280;34981;49.104;11.396;2023-05-08T07:15:45;95766.31;;;13.30;100.00
48563;BME280;34981;49.104;11.396;2023-05-08T07:18:12;95731.91;;;13.21;100.00
48563;BME280;34981;49.104;11.396;2023-05-08T07:20:40;95724.59;;;13.41;100.00
48563;BME280;34981;49.104;11.396;2023-05-08T07:23:07;95702.56;;;13.34;100.00
48563;BME280;34981;49.104;11.396;2023-05-08T07:25:34;95680.22;;;13.47;100.00
48563;BME280;34981;49.104;11.396;2023-05-08T07:28:01;95629.97;;;12.76;100.00
48563;BME280;34981;49.104;11.396;2023-05-08T07:30:28;95670.59;;;13.41;100.00
48563;BME280;34981;49.104;11.396;2023-05-08T07:32:55;95642.13;;;13.48;100.00
48563;BME280;34981;49.104;11.396;2023-05-08T07:35:23;95618.44;;;13.59;100.00
48563;BME280;34981;49.104;11.396;2023-05-08T07:37:50;95595.25;;;13.58;100.00
48563;BME280;34981;49.104;11.396;2023-05-08T07:40:17;95578.03;;;13.68;100.00
48563;BME280;34981;49.104;11.396;2023-05-08T07:42:44;95565.75;;;13.89;100.00
48563;BME280;34981;49.104;11.396;2023-05-08T07:45:11;95548.38;;;13.95;100.00
48563;BME280;34981;49.104;11.396;2023-05-08T07:47:49;95509.00;;;13.89;100.00
48563;BME280;34981;49.104;11.396;2023-05-08T07:50:17;95470.09;;;13.76;100.00
48563;BME280;34981;49.104;11.396;2023-05-08T07:52:44;95460.47;;;13.97;100.00
48563;BME280;34981;49.104;11.396;2023-05-08T07:55:14;95452.69;;;13.82;100.00
48563;BME280;34981;49.104;11.396;2023-05-08T07:57:42;95454.47;;;14.00;100.00
48563;BME280;34981;49.104;11.396;2023-05-08T08:00:10;95430.22;;;13.73;100.00
48563;BME280;34981;49.104;11.396;2023-05-08T08:02:41;95425.94;;;14.08;100.00
48563;BME280;34981;49.104;11.396;2023-05-08T08:05:09;95387.28;;;14.08;100.00
48563;BME280;34981;49.104;11.396;2023-05-08T08:07:36;95389.38;;;14.33;100.00
48563;BME280;34981;49.104;11.396;2023-05-08T08:10:03;95353.53;;;14.41;100.00
48563;BME280;34981;49.104;11.396;2023-05-08T08:12:31;95320.09;;;13.92;100.00
48563;BME280;34981;49.104;11.396;2023-05-08T08:14:58;95328.25;;;14.01;100.00
48563;BME280;34981;49.104;11.396;2023-05-08T08:17:25;95311.84;;;13.97;100.00
48563;BME280;34981;49.104;11.396;2023-05-08T08:19:55;95304.41;;;14.25;100.00
48563;BME280;34981;49.104;11.396;2023-05-08T08:22:23;95261.91;;;14.17;100.00
48563;BME280;34981;49.104;11.396;2023-05-08T08:24:50;95226.34;;;14.24;100.00
48563;BME280;34981;49.104;11.396;2023-05-08T08:27:21;95224.97;;;14.35;100.00
48563;BME280;34981;49.104;11.396;2023-05-08T08:29:48;95214.41;;;14.25;100.00
48563;BME280;34981;49.104;11.396;2023-05-08T08:32:18;95191.97;;;14.55;100.00
48563;BME280;34981;49.104;11.396;2023-05-08T08:34:45;95169.47;;;14.07;100.00
48563;BME280;34981;49.104;11.396;2023-05-08T08:37:12;95180.81;;;14.17;100.00
48563;BME280;34981;49.104;11.396;2023-05-08T08:39:39;95174.50;;;14.22;100.00
48563;BME280;34981;49.104;11.396;2023-05-08T08:42:07;95167.53;;;14.29;100.00
48563;BME280;34981;49.104;11.396;2023-05-08T08:44:34;95166.88;;;14.32;100.00
48563;BME280;34981;49.104;11.396;2023-05-08T08:47:03;95149.19;;;13.87;100.00
48563;BME280;34981;49.104;11.396;2023-05-08T08:49:33;95181.34;;;13.97;100.00
48563;BME280;34981;49.104;11.396;2023-05-08T08:52:02;95189.47;;;13.75;100.00
48563;BME280;34981;49.104;11.396;2023-05-08T08:54:32;95201.66;;;14.39;100.00
48563;BME280;34981;49.104;11.396;2023-05-08T08:57:00;95203.38;;;14.74;100.00
48563;BME280;34981;49.104;11.396;2023-05-08T08:59:31;95148.47;;;14.03;100.00
48563;BME280;34981;49.104;11.396;2023-05-08T09:02:00;95175.06;;;14.41;100.00
48563;BME280;34981;49.104;11.396;2023-05-08T09:04:31;95183.94;;;14.72;100.00
48563;BME280;34981;49.104;11.396;2023-05-08T09:06:58;95155.66;;;14.96;100.00
48563;BME280;34981;49.104;11.396;2023-05-08T09:09:26;95141.63;;;14.94;100.00
48563;BME280;34981;49.104;11.396;2023-05-08T09:11:54;95134.81;;;15.22;100.00
48563;BME280;34981;49.104;11.396;2023-05-08T09:14:21;95117.91;;;14.91;100.00
48563;BME280;34981;49.104;11.396;2023-05-08T09:16:54;95126.03;;;14.99;100.00
48563;BME280;34981;49.104;11.396;2023-05-08T09:19:21;95112.53;;;15.25;100.00
48563;BME280;34981;49.104;11.396;2023-05-08T09:21:54;95107.72;;;15.22;100.00
48563;BME280;34981;49.104;11.396;2023-05-08T09:24:21;95102.47;;;15.34;100.00
48563;BME280;34981;49.104;11.396;2023-05-08T09:26:49;95103.13;;;15.40;100.00
48563;BME280;34981;49.104;11.396;2023-05-08T09:29:17;95106.44;;;15.45;100.00
48563;BME280;34981;49.104;11.396;2023-05-08T09:31:45;95119.69;;;15.30;100.00
48563;BME280;34981;49.104;11.396;2023-05-08T09:34:23;95125.06;;;15.64;100.00
48563;BME280;34981;49.104;11.396;2023-05-08T09:36:54;95117.25;;;15.71;100.00
48563;BME280;34981;49.104;11.396;2023-05-08T09:39:23;95123.81;;;15.44;100.00
48563;BME280;34981;49.104;11.396;2023-05-08T09:41:57;95126.44;;;15.96;100.00
48563;BME280;34981;49.104;11.396;2023-05-08T09:44:24;95129.66;;;15.98;100.00
48563;BME280;34981;49.104;11.396;2023-05-08T09:46:55;95139.19;;;16.04;100.00
48563;BME280;34981;49.104;11.396;2023-05-08T09:49:34;95155.44;;;16.13;100.00
48563;BME280;34981;49.104;11.396;2023-05-08T09:52:02;95158.88;;;16.30;100.00
48563;BME280;34981;49.104;11.396;2023-05-08T09:54:29;95160.53;;;16.52;100.00
48563;BME280;34981;49.104;11.396;2023-05-08T09:56:56;95177.31;;;16.46;100.00
48563;BME280;34981;49.104;11.396;2023-05-08T09:59:27;95175.44;;;16.38;100.00
48563;BME280;34981;49.104;11.396;2023-05-08T10:01:54;95184.91;;;16.23;100.00
48563;BME280;34981;49.104;11.396;2023-05-08T10:04:31;95198.69;;;16.56;100.00
48563;BME280;34981;49.104;11.396;2023-05-08T10:06:59;95208.06;;;16.58;100.00
48563;BME280;34981;49.104;11.396;2023-05-08T10:09:27;95227.13;;;16.50;100.00
48563;BME280;34981;49.104;11.396;2023-05-08T10:12:08;95231.97;;;16.18;100.00
48563;BME280;34981;49.104;11.396;2023-05-08T10:14:35;95244.53;;;16.40;100.00
48563;BME280;34981;49.104;11.396;2023-05-08T10:17:03;95239.72;;;16.37;100.00
48563;BME280;34981;49.104;11.396;2023-05-08T10:19:33;95244.31;;;16.71;100.00
48563;BME280;34981;49.104;11.396;2023-05-08T10:22:04;95257.50;;;16.17;100.00
48563;BME280;34981;49.104;11.396;2023-05-08T10:24:32;95262.00;;;15.96;100.00
48563;BME280;34981;49.104;11.396;2023-05-08T10:27:09;95267.38;;;16.22;100.00
48563;BME280;34981;49.104;11.396;2023-05-08T10:29:54;95264.94;;;16.38;100.00
48563;BME280;34981;49.104;11.396;2023-05-08T10:32:22;95256.78;;;16.55;100.00
48563;BME280;34981;49.104;11.396;2023-05-08T10:34:55;95271.22;;;16.12;100.00
48563;BME280;34981;49.104;11.396;2023-05-08T10:37:22;95266.59;;;16.13;100.00
48563;BME280;34981;49.104;11.396;2023-05-08T10:39:49;95270.41;;;16.29;100.00
48563;BME280;34981;49.104;11.396;2023-05-08T10:42:17;95267.94;;;16.53;100.00
48563;BME280;34981;49.104;11.396;2023-05-08T10:44:45;95272.44;;;16.49;100.00
48563;BME280;34981;49.104;11.396;2023-05-08T10:47:21;95267.16;;;16.61;100.00
48563;BME280;34981;49.104;11.396;2023-05-08T10:50:00;95271.16;;;16.47;100.00
48563;BME280;34981;49.104;11.396;2023-05-08T10:52:46;95276.28;;;16.31;100.00
48563;BME280;34981;49.104;11.396;2023-05-08T11:01:09;95278.56;;;16.20;100.00
48563;BME280;34981;49.104;11.396;2023-05-08T11:03:19;95263.38;;;16.28;100.00
48563;BME280;34981;49.104;11.396;2023-05-08T11:05:58;95275.13;;;16.66;100.00
48563;BME280;34981;49.104;11.396;2023-05-08T11:08:26;95271.00;;;16.60;100.00
48563;BME280;34981;49.104;11.396;2023-05-08T11:13:34;95271.53;;;16.28;100.00
48563;BME280;34981;49.104;11.396;2023-05-08T11:16:02;95285.59;;;16.21;100.00
48563;BME280;34981;49.104;11.396;2023-05-08T11:18:29;95281.88;;;16.43;100.00
48563;BME280;34981;49.104;11.396;2023-05-08T11:21:14;95277.38;;;16.56;100.00
48563;BME280;34981;49.104;11.396;2023-05-08T11:23:46;95264.72;;;16.77;100.00
48563;BME280;34981;49.104;11.396;2023-05-08T11:26:21;95256.66;;;16.89;100.00
48563;BME280;34981;49.104;11.396;2023-05-08T11:29:07;95256.91;;;16.58;100.00
48563;BME280;34981;49.104;11.396;2023-05-08T11:31:48;95277.44;;;16.13;100.00
48563;BME280;34981;49.104;11.396;2023-05-08T11:37:01;95283.31;;;16.23;100.00
48563;BME280;34981;49.104;11.396;2023-05-08T11:39:28;95273.75;;;16.34;100.00
48563;BME280;34981;49.104;11.396;2023-05-08T11:42:13;95270.53;;;16.50;100.00
48563;BME280;34981;49.104;11.396;2023-05-08T11:44:42;95265.06;;;16.67;100.00
48563;BME280;34981;49.104;11.396;2023-05-08T11:47:09;95270.13;;;16.77;100.00
48563;BME280;34981;49.104;11.396;2023-05-08T11:49:42;95271.16;;;16.64;100.00
48563;BME280;34981;49.104;11.396;2023-05-08T11:52:09;95270.63;;;16.79;100.00
48563;BME280;34981;49.104;11.396;2023-05-08T11:54:36;95268.84;;;16.83;100.00
48563;BME280;34981;49.104;11.396;2023-05-08T11:57:03;95274.16;;;16.71;100.00
48563;BME280;34981;49.104;11.396;2023-05-08T11:59:33;95278.00;;;16.61;100.00
48563;BME280;34981;49.104;11.396;2023-05-08T12:02:01;95288.09;;;16.35;100.00
48563;BME280;34981;49.104;11.396;2023-05-08T12:04:42;95301.00;;;16.64;100.00
48563;BME280;34981;49.104;11.396;2023-05-08T12:07:09;95302.06;;;16.80;100.00
48563;BME280;34981;49.104;11.396;2023-05-08T12:09:37;95298.38;;;16.85;100.00
48563;BME280;34981;49.104;11.396;2023-05-08T12:12:04;95294.88;;;16.76;100.00
48563;BME280;34981;49.104;11.396;2023-05-08T12:14:31;95293.66;;;16.64;100.00
48563;BME280;34981;49.104;11.396;2023-05-08T12:17:01;95301.81;;;16.39;100.00
48563;BME280;34981;49.104;11.396;2023-05-08T12:19:28;95314.13;;;16.19;100.00
48563;BME280;34981;49.104;11.396;2023-05-08T12:21:55;95311.09;;;16.29;100.00
48563;BME280;34981;49.104;11.396;2023-05-08T12:24:23;95301.97;;;16.51;100.00
48563;BME280;34981;49.104;11.396;2023-05-08T12:26:52;95303.81;;;16.76;100.00
48563;BME280;34981;49.104;11.396;2023-05-08T12:29:20;95302.91;;;16.55;100.00
48563;BME280;34981;49.104;11.396;2023-05-08T12:31:47;95307.22;;;16.56;100.00
48563;BME280;34981;49.104;11.396;2023-05-08T12:34:14;95302.41;;;16.53;100.00
48563;BME280;34981;49.104;11.396;2023-05-08T12:36:42;95305.63;;;16.55;100.00
48563;BME280;34981;49.104;11.396;2023-05-08T12:39:12;95307.53;;;16.46;100.00
48563;BME280;34981;49.104;11.396;2023-05-08T12:41:49;95299.91;;;16.30;100.00
48563;BME280;34981;49.104;11.396;2023-05-08T12:46:50;95319.69;;;16.48;100.00
48563;BME280;34981;49.104;11.396;2023-05-08T12:49:28;95314.94;;;16.28;100.00
48563;BME280;34981;49.104;11.396;2023-05-08T12:52:05;95304.88;;;16.11;100.00
48563;BME280;34981;49.104;11.396;2023-05-08T12:54:33;95320.50;;;16.31;100.00
48563;BME280;34981;49.104;11.396;2023-05-08T12:57:00;95308.03;;;16.39;100.00
48563;BME280;34981;49.104;11.396;2023-05-08T12:59:32;95298.31;;;16.29;100.00
48563;BME280;34981;49.104;11.396;2023-05-08T13:01:59;95297.53;;;16.29;100.00
48563;BME280;34981;49.104;11.396;2023-05-08T13:04:26;95295.75;;;16.33;100.00
48563;BME280;34981;49.104;11.396;2023-05-08T13:06:57;95290.47;;;16.36;100.00
48563;BME280;34981;49.104;11.396;2023-05-08T13:09:24;95297.81;;;16.45;100.00
48563;BME280;34981;49.104;11.396;2023-05-08T13:11:51;95281.69;;;16.57;100.00
48563;BME280;34981;49.104;11.396;2023-05-08T13:14:18;95289.03;;;16.48;100.00
48563;BME280;34981;49.104;11.396;2023-05-08T13:16:45;95279.97;;;16.26;100.00
48563;BME280;34981;49.104;11.396;2023-05-08T13:19:16;95287.00;;;16.27;100.00
48563;BME280;34981;49.104;11.396;2023-05-08T13:21:43;95283.94;;;16.38;100.00
48563;BME280;34981;49.104;11.396;2023-05-08T13:24:13;95287.91;;;16.49;100.00
48563;BME280;34981;49.104;11.396;2023-05-08T13:26:41;95293.56;;;16.01;100.00
48563;BME280;34981;49.104;11.396;2023-05-08T13:29:08;95291.97;;;15.91;100.00
48563;BME280;34981;49.104;11.396;2023-05-08T13:31:35;95293.06;;;16.16;100.00